Aeroporto :
LOGIN :

Iscrizione | Disclaimer

   EN    FR    IT 

 










Sommario :    VFR   VFR Marginale   IFR   IFR Intensivo   IFR Molto Intensivo
Visibilità : 
Base nubi : 
>= 8 km
>= 3000ft
5 / 8 km
1000 / 3000 ft
1500m / 5 km
500 / 1000 ft
800 / 1500m
200 / 500 ft
< 800m
< 200 ft
Simboli :   Temporali  Nebbia  Neve Forte  Precipitazioni Forti  Vento > 20 kt
SIGMETs :   Varie  Temporali  Ghiacco  Turbolenza  Onda orograficha  Ceneri Vulcaniche






- Altitudine del aeroporto : 481 ft
- Codice IATA : DNK


UKDD - Dnipropetrovs'k

ULTIMO METAR :
  • 032100Z 24003MPS CAVOK 04/M08 Q1016 R26/090070 NOSIG

METARs OBSOLETI :
  • 032030Z 26003MPS CAVOK 06/M08 Q1016 R26/090070 NOSIG
  • 032000Z 27002MPS CAVOK 06/M08 Q1015 R26/090070 NOSIG
  • 031930Z 26002MPS CAVOK 06/M09 Q1015 R26/090070 NOSIG
  • 031900Z 25002MPS CAVOK 06/M09 Q1015 R26/090070 NOSIG
  • 031830Z 24002MPS 200V260 CAVOK 06/M09 Q1015 R26/090070 NOSIG
  • 031800Z 23002MPS CAVOK 06/M09 Q1015 R26/090070 NOSIG

TAF TAF UKDD
Valido dal 03 a 18 ore il 04 a 18 ore UTC


031705Z 0318/0418 22005MPS CAVOK TX14/0412Z TNM01/0403Z
BECMG 0405/0407 28006MPS
BECMG 0412/0414 31005MPS



MetMap, La meteo Aeronautica in un colpo d'occhio ! - Copyright ORBIFLY Dicembre 2007 - Disclaimer

ORBIFLY MET'MAP TEAM :

Programmazione e sviluppo : Alexandra Zaïnal
Concezione : Baudouin d'Aumeries
Aiuto per la programmazione : Marc-Olivier Méhu
Supporto tecnico e logistico : Manuel Goepfert
Aiuto per la traduzione : Arnaldo La Scala

Contatto : metmap@orbifly.com




FONTI E CREDITI :

   NOAA